sensor_id;sensor_type;location;lat;lon;timestamp;pressure;altitude;pressure_sealevel;temperature;humidity
21300;BME280;10809;49.476;11.016;2023-12-22T00:00:35;96644.03;;;4.39;70.06
21300;BME280;10809;49.476;11.016;2023-12-22T00:03:05;96641.41;;;4.39;69.95
21300;BME280;10809;49.476;11.016;2023-12-22T00:05:36;96660.50;;;4.41;70.24
21300;BME280;10809;49.476;11.016;2023-12-22T00:08:06;96646.66;;;4.39;69.72
21300;BME280;10809;49.476;11.016;2023-12-22T00:10:36;96642.25;;;4.40;69.87
21300;BME280;10809;49.476;11.016;2023-12-22T00:13:07;96647.50;;;4.40;70.16
21300;BME280;10809;49.476;11.016;2023-12-22T00:15:37;96656.28;;;4.39;69.52
21300;BME280;10809;49.476;11.016;2023-12-22T00:18:08;96664.22;;;4.37;69.98
21300;BME280;10809;49.476;11.016;2023-12-22T00:20:39;96659.84;;;4.38;69.85
21300;BME280;10809;49.476;11.016;2023-12-22T00:23:09;96666.00;;;4.37;70.01
21300;BME280;10809;49.476;11.016;2023-12-22T00:25:39;96651.22;;;4.36;69.95
21300;BME280;10809;49.476;11.016;2023-12-22T00:28:10;96635.50;;;4.36;70.05
21300;BME280;10809;49.476;11.016;2023-12-22T00:30:40;96649.53;;;4.35;69.88
21300;BME280;10809;49.476;11.016;2023-12-22T00:33:11;96655.81;;;4.32;69.83
21300;BME280;10809;49.476;11.016;2023-12-22T00:35:42;96660.19;;;4.32;69.63
21300;BME280;10809;49.476;11.016;2023-12-22T00:38:12;96659.41;;;4.29;69.81
21300;BME280;10809;49.476;11.016;2023-12-22T00:40:43;96648.22;;;4.28;69.74
21300;BME280;10809;49.476;11.016;2023-12-22T00:43:13;96656.06;;;4.28;69.73
21300;BME280;10809;49.476;11.016;2023-12-22T00:45:43;96675.41;;;4.25;70.05
21300;BME280;10809;49.476;11.016;2023-12-22T00:48:14;96680.72;;;4.23;69.62
21300;BME280;10809;49.476;11.016;2023-12-22T00:50:46;96685.97;;;4.23;69.95
21300;BME280;10809;49.476;11.016;2023-12-22T00:53:16;96698.22;;;4.23;70.42
21300;BME280;10809;49.476;11.016;2023-12-22T00:55:47;96680.81;;;4.22;70.31
21300;BME280;10809;49.476;11.016;2023-12-22T00:58:20;96679.13;;;4.21;69.89
21300;BME280;10809;49.476;11.016;2023-12-22T01:00:52;96681.75;;;4.21;69.96
21300;BME280;10809;49.476;11.016;2023-12-22T01:03:23;96674.84;;;4.20;69.88
21300;BME280;10809;49.476;11.016;2023-12-22T01:05:53;96666.13;;;4.19;70.24
21300;BME280;10809;49.476;11.016;2023-12-22T01:08:24;96663.59;;;4.18;70.08
21300;BME280;10809;49.476;11.016;2023-12-22T01:10:54;96670.59;;;4.17;70.09
21300;BME280;10809;49.476;11.016;2023-12-22T01:13:25;96671.63;;;4.15;69.91
21300;BME280;10809;49.476;11.016;2023-12-22T01:15:55;96666.47;;;4.13;70.01
21300;BME280;10809;49.476;11.016;2023-12-22T01:18:26;96675.22;;;4.12;70.08
21300;BME280;10809;49.476;11.016;2023-12-22T01:20:59;96669.25;;;4.10;69.74
21300;BME280;10809;49.476;11.016;2023-12-22T01:23:32;96670.16;;;4.09;70.13
21300;BME280;10809;49.476;11.016;2023-12-22T01:26:03;96679.81;;;4.09;70.12
21300;BME280;10809;49.476;11.016;2023-12-22T01:28:34;96694.69;;;4.08;70.45
21300;BME280;10809;49.476;11.016;2023-12-22T01:31:07;96694.75;;;4.07;70.25
21300;BME280;10809;49.476;11.016;2023-12-22T01:33:38;96700.94;;;4.06;70.31
21300;BME280;10809;49.476;11.016;2023-12-22T01:36:08;96699.22;;;4.05;70.05
21300;BME280;10809;49.476;11.016;2023-12-22T01:38:39;96701.84;;;4.05;70.08
21300;BME280;10809;49.476;11.016;2023-12-22T01:41:09;96704.47;;;4.05;70.33
21300;BME280;10809;49.476;11.016;2023-12-22T01:43:40;96706.25;;;4.04;69.92
21300;BME280;10809;49.476;11.016;2023-12-22T01:46:11;96708.88;;;4.04;70.18
21300;BME280;10809;49.476;11.016;2023-12-22T01:48:42;96709.69;;;4.05;70.79
21300;BME280;10809;49.476;11.016;2023-12-22T01:51:13;96699.16;;;4.06;69.94
21300;BME280;10809;49.476;11.016;2023-12-22T01:53:47;96710.56;;;4.05;70.00
21300;BME280;10809;49.476;11.016;2023-12-22T01:56:18;96701.75;;;4.06;70.42
21300;BME280;10809;49.476;11.016;2023-12-22T01:58:51;96707.00;;;4.06;70.01
21300;BME280;10809;49.476;11.016;2023-12-22T02:01:23;96700.84;;;4.07;70.31
21300;BME280;10809;49.476;11.016;2023-12-22T02:03:54;96686.91;;;4.07;70.27
21300;BME280;10809;49.476;11.016;2023-12-22T02:06:24;96679.91;;;4.07;69.96
21300;BME280;10809;49.476;11.016;2023-12-22T02:08:57;96680.72;;;4.08;70.31
21300;BME280;10809;49.476;11.016;2023-12-22T02:11:30;96683.34;;;4.08;70.07
21300;BME280;10809;49.476;11.016;2023-12-22T02:14:07;96693.00;;;4.07;70.14
21300;BME280;10809;49.476;11.016;2023-12-22T02:17:01;96703.47;;;4.07;70.25
21300;BME280;10809;49.476;11.016;2023-12-22T02:19:43;96687.84;;;4.06;70.06
21300;BME280;10809;49.476;11.016;2023-12-22T02:22:14;96674.84;;;4.04;69.81
21300;BME280;10809;49.476;11.016;2023-12-22T02:24:47;96681.84;;;4.04;69.99
21300;BME280;10809;49.476;11.016;2023-12-22T02:27:53;96679.31;;;4.02;70.48
21300;BME280;10809;49.476;11.016;2023-12-22T02:30:52;96679.31;;;4.02;70.35
21300;BME280;10809;49.476;11.016;2023-12-22T02:33:23;96679.31;;;4.02;70.33
21300;BME280;10809;49.476;11.016;2023-12-22T02:36:02;96681.94;;;4.02;70.27
21300;BME280;10809;49.476;11.016;2023-12-22T02:38:37;96674.06;;;4.02;69.99
21300;BME280;10809;49.476;11.016;2023-12-22T02:41:09;96684.53;;;4.02;70.07
21300;BME280;10809;49.476;11.016;2023-12-22T02:43:40;96685.41;;;4.03;70.51
21300;BME280;10809;49.476;11.016;2023-12-22T02:46:14;96697.63;;;4.02;69.91
21300;BME280;10809;49.476;11.016;2023-12-22T02:48:48;96697.63;;;4.02;70.28
21300;BME280;10809;49.476;11.016;2023-12-22T02:51:18;96695.03;;;4.02;69.92
21300;BME280;10809;49.476;11.016;2023-12-22T02:53:48;96711.75;;;4.00;69.84
21300;BME280;10809;49.476;11.016;2023-12-22T02:56:19;96708.28;;;3.99;70.28
21300;BME280;10809;49.476;11.016;2023-12-22T02:58:49;96725.84;;;3.97;70.16
21300;BME280;10809;49.476;11.016;2023-12-22T03:01:20;96721.53;;;3.96;69.97
21300;BME280;10809;49.476;11.016;2023-12-22T03:03:53;96721.63;;;3.95;69.87
21300;BME280;10809;49.476;11.016;2023-12-22T03:06:23;96726.94;;;3.93;70.24
21300;BME280;10809;49.476;11.016;2023-12-22T03:08:54;96734.03;;;3.91;70.06
21300;BME280;10809;49.476;11.016;2023-12-22T03:11:24;96727.97;;;3.91;69.94
21300;BME280;10809;49.476;11.016;2023-12-22T03:13:54;96745.53;;;3.89;70.00
21300;BME280;10809;49.476;11.016;2023-12-22T03:16:25;96748.22;;;3.87;70.12
21300;BME280;10809;49.476;11.016;2023-12-22T03:18:55;96723.81;;;3.87;69.94
21300;BME280;10809;49.476;11.016;2023-12-22T03:21:25;96753.53;;;3.86;70.29
21300;BME280;10809;49.476;11.016;2023-12-22T03:23:59;96738.84;;;3.83;70.41
21300;BME280;10809;49.476;11.016;2023-12-22T03:26:29;96747.53;;;3.84;70.39
21300;BME280;10809;49.476;11.016;2023-12-22T03:29:03;96742.38;;;3.82;70.16
21300;BME280;10809;49.476;11.016;2023-12-22T03:31:33;96741.56;;;3.82;70.13
21300;BME280;10809;49.476;11.016;2023-12-22T03:34:03;96759.97;;;3.80;69.95
21300;BME280;10809;49.476;11.016;2023-12-22T03:36:33;96741.63;;;3.80;70.00
21300;BME280;10809;49.476;11.016;2023-12-22T03:39:04;96764.34;;;3.80;70.26
21300;BME280;10809;49.476;11.016;2023-12-22T03:41:34;96752.19;;;3.79;70.37
21300;BME280;10809;49.476;11.016;2023-12-22T03:44:05;96745.16;;;3.79;70.12
21300;BME280;10809;49.476;11.016;2023-12-22T03:46:35;96746.09;;;3.78;70.42
21300;BME280;10809;49.476;11.016;2023-12-22T03:49:05;96728.72;;;3.77;69.79
21300;BME280;10809;49.476;11.016;2023-12-22T03:51:36;96741.81;;;3.77;69.61
21300;BME280;10809;49.476;11.016;2023-12-22T03:54:07;96729.63;;;3.76;69.75
21300;BME280;10809;49.476;11.016;2023-12-22T03:56:38;96722.78;;;3.74;69.61
21300;BME280;10809;49.476;11.016;2023-12-22T03:59:08;96728.09;;;3.72;69.57
21300;BME280;10809;49.476;11.016;2023-12-22T04:01:38;96729.94;;;3.70;69.85
21300;BME280;10809;49.476;11.016;2023-12-22T04:04:09;96721.38;;;3.68;69.74
21300;BME280;10809;49.476;11.016;2023-12-22T04:06:42;96719.72;;;3.66;69.64
21300;BME280;10809;49.476;11.016;2023-12-22T04:09:13;96715.44;;;3.65;69.79
21300;BME280;10809;49.476;11.016;2023-12-22T04:11:43;96711.19;;;3.62;69.89
21300;BME280;10809;49.476;11.016;2023-12-22T04:14:13;96719.03;;;3.62;70.01
21300;BME280;10809;49.476;11.016;2023-12-22T04:16:54;96719.03;;;3.62;69.73
21300;BME280;10809;49.476;11.016;2023-12-22T04:19:24;96737.34;;;3.62;69.59
21300;BME280;10809;49.476;11.016;2023-12-22T04:21:55;96724.28;;;3.62;69.83
21300;BME280;10809;49.476;11.016;2023-12-22T04:24:25;96731.31;;;3.62;69.81
21300;BME280;10809;49.476;11.016;2023-12-22T04:26:58;96726.06;;;3.62;70.10
21300;BME280;10809;49.476;11.016;2023-12-22T04:29:29;96718.22;;;3.62;69.45
21300;BME280;10809;49.476;11.016;2023-12-22T04:31:59;96728.69;;;3.62;69.67
21300;BME280;10809;49.476;11.016;2023-12-22T04:34:29;96737.44;;;3.61;69.76
21300;BME280;10809;49.476;11.016;2023-12-22T04:37:09;96721.81;;;3.59;69.76
21300;BME280;10809;49.476;11.016;2023-12-22T04:39:40;96738.47;;;3.58;69.53
21300;BME280;10809;49.476;11.016;2023-12-22T04:42:10;96739.41;;;3.57;69.38
21300;BME280;10809;49.476;11.016;2023-12-22T04:44:41;96754.31;;;3.55;69.32
21300;BME280;10809;49.476;11.016;2023-12-22T04:47:11;96767.56;;;3.52;69.00
21300;BME280;10809;49.476;11.016;2023-12-22T04:49:43;96758.94;;;3.50;69.24
21300;BME280;10809;49.476;11.016;2023-12-22T04:52:13;96769.56;;;3.47;69.35
21300;BME280;10809;49.476;11.016;2023-12-22T04:54:44;96760.97;;;3.45;69.49
21300;BME280;10809;49.476;11.016;2023-12-22T04:57:14;96761.03;;;3.44;69.48
21300;BME280;10809;49.476;11.016;2023-12-22T04:59:44;96778.59;;;3.42;69.35
21300;BME280;10809;49.476;11.016;2023-12-22T05:02:14;96777.81;;;3.40;69.14
21300;BME280;10809;49.476;11.016;2023-12-22T05:04:54;96770.03;;;3.38;69.22
21300;BME280;10809;49.476;11.016;2023-12-22T05:07:25;96762.34;;;3.35;69.43
21300;BME280;10809;49.476;11.016;2023-12-22T05:09:55;96764.97;;;3.35;69.47
21300;BME280;10809;49.476;11.016;2023-12-22T05:12:25;96787.69;;;3.35;69.81
21300;BME280;10809;49.476;11.016;2023-12-22T05:14:59;96794.66;;;3.34;69.77
21300;BME280;10809;49.476;11.016;2023-12-22T05:17:29;96792.06;;;3.34;69.44
21300;BME280;10809;49.476;11.016;2023-12-22T05:19:59;96782.53;;;3.33;69.43
21300;BME280;10809;49.476;11.016;2023-12-22T05:22:33;96803.44;;;3.33;69.66
21300;BME280;10809;49.476;11.016;2023-12-22T05:25:04;96809.50;;;3.34;69.63
21300;BME280;10809;49.476;11.016;2023-12-22T05:27:34;96806.88;;;3.34;70.02
21300;BME280;10809;49.476;11.016;2023-12-22T05:30:05;96798.97;;;3.35;69.56
21300;BME280;10809;49.476;11.016;2023-12-22T05:32:37;96805.06;;;3.36;69.54
21300;BME280;10809;49.476;11.016;2023-12-22T05:35:10;96793.66;;;3.37;69.75
21300;BME280;10809;49.476;11.016;2023-12-22T05:37:40;96793.66;;;3.37;69.53
21300;BME280;10809;49.476;11.016;2023-12-22T05:40:11;96808.53;;;3.36;69.09
21300;BME280;10809;49.476;11.016;2023-12-22T05:42:41;96796.28;;;3.37;69.59
21300;BME280;10809;49.476;11.016;2023-12-22T05:45:14;96800.69;;;3.36;69.71
21300;BME280;10809;49.476;11.016;2023-12-22T05:47:44;96820.66;;;3.37;69.90
21300;BME280;10809;49.476;11.016;2023-12-22T05:50:15;96811.16;;;3.36;69.49
21300;BME280;10809;49.476;11.016;2023-12-22T05:52:45;96813.84;;;3.35;69.31
21300;BME280;10809;49.476;11.016;2023-12-22T05:55:15;96835.59;;;3.35;69.82
21300;BME280;10809;49.476;11.016;2023-12-22T05:57:46;96827.81;;;3.34;69.37
21300;BME280;10809;49.476;11.016;2023-12-22T06:00:19;96833.19;;;3.31;69.34
21300;BME280;10809;49.476;11.016;2023-12-22T06:02:52;96821.22;;;3.27;69.38
21300;BME280;10809;49.476;11.016;2023-12-22T06:05:23;96805.69;;;3.24;69.35
21300;BME280;10809;49.476;11.016;2023-12-22T06:07:53;96804.97;;;3.20;69.53
21300;BME280;10809;49.476;11.016;2023-12-22T06:10:24;96818.22;;;3.17;69.33
21300;BME280;10809;49.476;11.016;2023-12-22T06:12:54;96814.88;;;3.14;69.68
21300;BME280;10809;49.476;11.016;2023-12-22T06:15:24;96812.44;;;3.11;69.39
21300;BME280;10809;49.476;11.016;2023-12-22T06:17:55;96816.13;;;3.07;69.64
21300;BME280;10809;49.476;11.016;2023-12-22T06:20:25;96816.22;;;3.05;69.46
21300;BME280;10809;49.476;11.016;2023-12-22T06:22:56;96834.59;;;3.04;69.35
21300;BME280;10809;49.476;11.016;2023-12-22T06:25:26;96847.72;;;3.02;69.73
21300;BME280;10809;49.476;11.016;2023-12-22T06:27:57;96840.81;;;3.01;69.59
21300;BME280;10809;49.476;11.016;2023-12-22T06:30:27;96839.09;;;3.00;69.92
21300;BME280;10809;49.476;11.016;2023-12-22T06:32:57;96831.25;;;3.00;70.21
21300;BME280;10809;49.476;11.016;2023-12-22T06:35:28;96842.50;;;3.02;69.95
21300;BME280;10809;49.476;11.016;2023-12-22T06:37:58;96838.94;;;3.03;69.89
21300;BME280;10809;49.476;11.016;2023-12-22T06:40:40;96834.66;;;3.02;70.04
21300;BME280;10809;49.476;11.016;2023-12-22T06:43:10;96834.66;;;3.02;69.69
21300;BME280;10809;49.476;11.016;2023-12-22T06:45:40;96844.34;;;3.00;69.14
21300;BME280;10809;49.476;11.016;2023-12-22T06:48:11;96848.81;;;2.98;69.61
21300;BME280;10809;49.476;11.016;2023-12-22T06:50:41;96856.72;;;2.97;69.76
21300;BME280;10809;49.476;11.016;2023-12-22T06:53:14;96860.38;;;2.93;69.73
21300;BME280;10809;49.476;11.016;2023-12-22T06:55:45;96850.94;;;2.90;70.17
21300;BME280;10809;49.476;11.016;2023-12-22T06:58:15;96847.53;;;2.88;69.99
21300;BME280;10809;49.476;11.016;2023-12-22T07:00:45;96851.09;;;2.87;70.02
21300;BME280;10809;49.476;11.016;2023-12-22T07:03:16;96865.09;;;2.86;70.36
21300;BME280;10809;49.476;11.016;2023-12-22T07:05:47;96858.16;;;2.85;70.22
21300;BME280;10809;49.476;11.016;2023-12-22T07:08:18;96859.00;;;2.86;70.45
21300;BME280;10809;49.476;11.016;2023-12-22T07:10:48;96844.19;;;2.86;70.63
21300;BME280;10809;49.476;11.016;2023-12-22T07:13:18;96848.41;;;2.89;70.62
21300;BME280;10809;49.476;11.016;2023-12-22T07:15:48;96847.41;;;2.91;70.56
21300;BME280;10809;49.476;11.016;2023-12-22T07:18:19;96847.31;;;2.93;70.89
21300;BME280;10809;49.476;11.016;2023-12-22T07:20:49;96847.16;;;2.96;70.62
21300;BME280;10809;49.476;11.016;2023-12-22T07:23:19;96849.56;;;3.00;70.79
21300;BME280;10809;49.476;11.016;2023-12-22T07:25:50;96850.25;;;3.04;70.84
21300;BME280;10809;49.476;11.016;2023-12-22T07:28:20;96848.34;;;3.07;71.26
21300;BME280;10809;49.476;11.016;2023-12-22T07:30:52;96864.66;;;3.12;71.06
21300;BME280;10809;49.476;11.016;2023-12-22T07:33:23;96872.28;;;3.17;70.95
21300;BME280;10809;49.476;11.016;2023-12-22T07:35:53;96886.03;;;3.20;71.06
21300;BME280;10809;49.476;11.016;2023-12-22T07:38:23;96890.22;;;3.24;71.15
21300;BME280;10809;49.476;11.016;2023-12-22T07:40:54;96890.88;;;3.28;71.23
21300;BME280;10809;49.476;11.016;2023-12-22T07:43:24;96887.22;;;3.32;71.44
21300;BME280;10809;49.476;11.016;2023-12-22T07:45:55;96888.75;;;3.36;71.27
21300;BME280;10809;49.476;11.016;2023-12-22T07:48:25;96884.22;;;3.39;71.43
21300;BME280;10809;49.476;11.016;2023-12-22T07:50:55;96885.75;;;3.43;71.33
21300;BME280;10809;49.476;11.016;2023-12-22T07:53:26;96883.91;;;3.45;71.43
21300;BME280;10809;49.476;11.016;2023-12-22T07:55:56;96895.84;;;3.51;71.45
21300;BME280;10809;49.476;11.016;2023-12-22T07:58:29;96898.38;;;3.52;71.63
21300;BME280;10809;49.476;11.016;2023-12-22T08:01:05;96917.47;;;3.54;71.67
21300;BME280;10809;49.476;11.016;2023-12-22T08:03:36;96910.38;;;3.56;71.03
21300;BME280;10809;49.476;11.016;2023-12-22T08:06:10;96912.81;;;3.59;71.18
21300;BME280;10809;49.476;11.016;2023-12-22T08:08:40;96920.59;;;3.61;71.79
21300;BME280;10809;49.476;11.016;2023-12-22T08:11:11;96914.47;;;3.62;71.63
21300;BME280;10809;49.476;11.016;2023-12-22T08:13:47;96923.06;;;3.64;71.29
21300;BME280;10809;49.476;11.016;2023-12-22T08:16:20;96930.84;;;3.65;71.40
21300;BME280;10809;49.476;11.016;2023-12-22T08:18:51;96929.00;;;3.67;71.56
21300;BME280;10809;49.476;11.016;2023-12-22T08:21:23;96932.41;;;3.69;71.51
21300;BME280;10809;49.476;11.016;2023-12-22T08:23:53;96902.66;;;3.70;71.39
21300;BME280;10809;49.476;11.016;2023-12-22T08:26:23;96916.53;;;3.72;71.21
21300;BME280;10809;49.476;11.016;2023-12-22T08:28:54;96926.06;;;3.73;71.49
21300;BME280;10809;49.476;11.016;2023-12-22T08:31:24;96948.66;;;3.76;71.56
21300;BME280;10809;49.476;11.016;2023-12-22T08:33:54;96943.34;;;3.77;71.66
21300;BME280;10809;49.476;11.016;2023-12-22T08:36:25;96949.31;;;3.79;71.66
21300;BME280;10809;49.476;11.016;2023-12-22T08:38:56;96954.41;;;3.82;71.45
21300;BME280;10809;49.476;11.016;2023-12-22T08:41:26;96956.09;;;3.83;71.37
21300;BME280;10809;49.476;11.016;2023-12-22T08:43:57;96957.88;;;3.83;71.22
21300;BME280;10809;49.476;11.016;2023-12-22T08:46:27;96955.25;;;3.83;71.26
21300;BME280;10809;49.476;11.016;2023-12-22T08:48:58;96949.16;;;3.82;71.57
21300;BME280;10809;49.476;11.016;2023-12-22T08:51:29;96943.94;;;3.82;71.56
21300;BME280;10809;49.476;11.016;2023-12-22T08:53:59;96947.41;;;3.83;71.44
21300;BME280;10809;49.476;11.016;2023-12-22T08:56:30;96956.09;;;3.83;71.96
21300;BME280;10809;49.476;11.016;2023-12-22T08:59:01;96965.66;;;3.84;71.54
21300;BME280;10809;49.476;11.016;2023-12-22T09:01:35;96971.75;;;3.85;71.64
21300;BME280;10809;49.476;11.016;2023-12-22T09:04:09;96966.34;;;3.88;71.67
21300;BME280;10809;49.476;11.016;2023-12-22T09:06:40;96961.03;;;3.89;71.64
21300;BME280;10809;49.476;11.016;2023-12-22T09:09:11;96950.41;;;3.92;71.64
21300;BME280;10809;49.476;11.016;2023-12-22T09:11:41;96953.78;;;3.94;71.90
21300;BME280;10809;49.476;11.016;2023-12-22T09:14:11;96951.00;;;3.97;71.98
21300;BME280;10809;49.476;11.016;2023-12-22T09:16:42;96958.69;;;4.00;71.79
21300;BME280;10809;49.476;11.016;2023-12-22T09:19:14;96945.44;;;4.03;72.25
21300;BME280;10809;49.476;11.016;2023-12-22T09:21:44;96949.63;;;4.07;72.37
21300;BME280;10809;49.476;11.016;2023-12-22T09:24:18;96950.22;;;4.12;72.23
21300;BME280;10809;49.476;11.016;2023-12-22T09:26:48;96953.44;;;4.17;72.14
21300;BME280;10809;49.476;11.016;2023-12-22T09:29:20;96948.03;;;4.20;71.91
21300;BME280;10809;49.476;11.016;2023-12-22T09:31:52;96941.75;;;4.24;71.78
21300;BME280;10809;49.476;11.016;2023-12-22T09:34:22;96951.97;;;4.29;71.97
21300;BME280;10809;49.476;11.016;2023-12-22T09:36:54;96941.25;;;4.34;71.83
21300;BME280;10809;49.476;11.016;2023-12-22T09:39:24;96940.22;;;4.36;72.00
21300;BME280;10809;49.476;11.016;2023-12-22T09:41:55;96961.91;;;4.40;71.90
21300;BME280;10809;49.476;11.016;2023-12-22T09:44:31;96955.63;;;4.42;72.00
21300;BME280;10809;49.476;11.016;2023-12-22T09:47:04;96959.84;;;4.45;71.93
21300;BME280;10809;49.476;11.016;2023-12-22T09:49:38;96967.72;;;4.45;71.62
21300;BME280;10809;49.476;11.016;2023-12-22T09:52:11;96965.94;;;4.45;71.50
21300;BME280;10809;49.476;11.016;2023-12-22T09:54:45;96961.56;;;4.46;71.56
21300;BME280;10809;49.476;11.016;2023-12-22T09:57:17;96965.09;;;4.45;71.57
21300;BME280;10809;49.476;11.016;2023-12-22T09:59:48;96968.66;;;4.44;71.26
21300;BME280;10809;49.476;11.016;2023-12-22T10:02:19;96960.00;;;4.42;71.41
21300;BME280;10809;49.476;11.016;2023-12-22T10:04:49;96955.88;;;4.38;71.29
21300;BME280;10809;49.476;11.016;2023-12-22T10:07:20;96953.41;;;4.35;71.26
21300;BME280;10809;49.476;11.016;2023-12-22T10:09:51;96955.19;;;4.34;71.53
21300;BME280;10809;49.476;11.016;2023-12-22T10:12:25;96936.09;;;4.32;71.52
21300;BME280;10809;49.476;11.016;2023-12-22T10:14:59;96930.94;;;4.31;71.32
21300;BME280;10809;49.476;11.016;2023-12-22T10:17:30;96936.25;;;4.29;71.52
21300;BME280;10809;49.476;11.016;2023-12-22T10:20:01;96943.25;;;4.28;71.61
21300;BME280;10809;49.476;11.016;2023-12-22T10:22:31;96931.09;;;4.28;71.71
21300;BME280;10809;49.476;11.016;2023-12-22T10:25:08;96949.44;;;4.28;71.58
21300;BME280;10809;49.476;11.016;2023-12-22T10:27:41;96907.53;;;4.28;71.46
21300;BME280;10809;49.476;11.016;2023-12-22T10:30:12;96971.28;;;4.26;71.41
21300;BME280;10809;49.476;11.016;2023-12-22T10:32:43;96947.81;;;4.25;71.26
21300;BME280;10809;49.476;11.016;2023-12-22T10:35:16;96952.28;;;4.23;71.25
21300;BME280;10809;49.476;11.016;2023-12-22T10:37:50;96951.69;;;4.18;71.53
21300;BME280;10809;49.476;11.016;2023-12-22T10:40:24;96959.78;;;4.13;71.28
21300;BME280;10809;49.476;11.016;2023-12-22T10:42:55;96946.06;;;4.08;71.11
21300;BME280;10809;49.476;11.016;2023-12-22T10:45:26;96927.97;;;4.04;71.42
21300;BME280;10809;49.476;11.016;2023-12-22T10:47:57;96914.19;;;4.00;71.27
21300;BME280;10809;49.476;11.016;2023-12-22T10:50:28;96905.66;;;3.97;71.30
21300;BME280;10809;49.476;11.016;2023-12-22T10:52:58;96899.72;;;3.93;71.33
21300;BME280;10809;49.476;11.016;2023-12-22T10:55:29;96891.94;;;3.92;71.70
21300;BME280;10809;49.476;11.016;2023-12-22T10:58:03;96887.66;;;3.91;71.72
21300;BME280;10809;49.476;11.016;2023-12-22T11:00:37;96886.78;;;3.90;72.04
21300;BME280;10809;49.476;11.016;2023-12-22T11:03:08;96900.66;;;3.92;72.24
21300;BME280;10809;49.476;11.016;2023-12-22T11:05:45;96896.19;;;3.94;72.06
21300;BME280;10809;49.476;11.016;2023-12-22T11:08:17;96900.44;;;3.97;72.67
21300;BME280;10809;49.476;11.016;2023-12-22T11:10:56;96896.78;;;3.99;72.40
21300;BME280;10809;49.476;11.016;2023-12-22T11:13:27;96887.84;;;4.03;73.04
21300;BME280;10809;49.476;11.016;2023-12-22T11:15:58;96887.69;;;4.06;72.59
21300;BME280;10809;49.476;11.016;2023-12-22T11:18:28;96898.84;;;4.10;72.90
21300;BME280;10809;49.476;11.016;2023-12-22T11:21:00;96902.16;;;4.13;72.37
21300;BME280;10809;49.476;11.016;2023-12-22T11:23:33;96899.47;;;4.15;72.98
21300;BME280;10809;49.476;11.016;2023-12-22T11:26:08;96892.28;;;4.18;72.67
21300;BME280;10809;49.476;11.016;2023-12-22T11:28:41;96886.03;;;4.21;72.77
21300;BME280;10809;49.476;11.016;2023-12-22T11:31:14;96881.56;;;4.23;72.72
21300;BME280;10809;49.476;11.016;2023-12-22T11:33:50;96865.69;;;4.26;72.57
21300;BME280;10809;49.476;11.016;2023-12-22T11:36:22;96861.13;;;4.29;72.81
21300;BME280;10809;49.476;11.016;2023-12-22T11:38:53;96852.28;;;4.32;73.07
21300;BME280;10809;49.476;11.016;2023-12-22T11:41:29;96854.72;;;4.35;72.85
21300;BME280;10809;49.476;11.016;2023-12-22T11:44:04;96838.91;;;4.37;72.60
21300;BME280;10809;49.476;11.016;2023-12-22T11:46:34;96849.16;;;4.41;73.28
21300;BME280;10809;49.476;11.016;2023-12-22T11:49:05;96833.34;;;4.43;72.98
21300;BME280;10809;49.476;11.016;2023-12-22T11:51:39;96832.41;;;4.44;73.07
21300;BME280;10809;49.476;11.016;2023-12-22T11:54:43;96826.06;;;4.48;73.20
21300;BME280;10809;49.476;11.016;2023-12-22T12:03:06;96805.53;;;4.56;72.74
21300;BME280;10809;49.476;11.016;2023-12-22T12:05:37;96809.00;;;4.56;72.81
21300;BME280;10809;49.476;11.016;2023-12-22T12:08:07;96803.66;;;4.58;72.97
21300;BME280;10809;49.476;11.016;2023-12-22T12:10:51;96812.28;;;4.60;73.00
21300;BME280;10809;49.476;11.016;2023-12-22T12:13:24;96789.44;;;4.62;73.11
21300;BME280;10809;49.476;11.016;2023-12-22T12:15:58;96774.50;;;4.64;73.19
21300;BME280;10809;49.476;11.016;2023-12-22T12:18:31;96778.78;;;4.65;72.90
21300;BME280;10809;49.476;11.016;2023-12-22T12:21:02;96777.75;;;4.67;73.29
21300;BME280;10809;49.476;11.016;2023-12-22T12:23:33;96772.38;;;4.70;73.57
21300;BME280;10809;49.476;11.016;2023-12-22T12:26:06;96764.34;;;4.73;73.51
21300;BME280;10809;49.476;11.016;2023-12-22T12:28:37;96741.41;;;4.77;73.27
21300;BME280;10809;49.476;11.016;2023-12-22T12:31:08;96740.31;;;4.81;73.60
21300;BME280;10809;49.476;11.016;2023-12-22T12:33:39;96727.84;;;4.84;73.37
21300;BME280;10809;49.476;11.016;2023-12-22T12:36:11;96732.81;;;4.89;73.74
21300;BME280;10809;49.476;11.016;2023-12-22T12:41:42;96710.56;;;4.96;73.29
21300;BME280;10809;49.476;11.016;2023-12-22T12:44:14;96723.50;;;4.99;73.60
21300;BME280;10809;49.476;11.016;2023-12-22T12:46:51;96712.84;;;5.02;73.25
21300;BME280;10809;49.476;11.016;2023-12-22T12:49:21;96690.81;;;5.04;73.84
21300;BME280;10809;49.476;11.016;2023-12-22T12:51:56;96688.88;;;5.08;73.59
21300;BME280;10809;49.476;11.016;2023-12-22T12:54:26;96691.41;;;5.09;73.57
21300;BME280;10809;49.476;11.016;2023-12-22T12:56:56;96677.25;;;5.12;73.41
21300;BME280;10809;49.476;11.016;2023-12-22T12:59:27;96677.91;;;5.15;73.74
21300;BME280;10809;49.476;11.016;2023-12-22T13:01:57;96676.78;;;5.19;73.84
21300;BME280;10809;49.476;11.016;2023-12-22T13:04:37;96665.22;;;5.23;73.67
21300;BME280;10809;49.476;11.016;2023-12-22T13:07:10;96661.56;;;5.26;73.82
21300;BME280;10809;49.476;11.016;2023-12-22T13:09:43;96680.59;;;5.29;73.53
21300;BME280;10809;49.476;11.016;2023-12-22T13:12:14;96695.28;;;5.32;73.58
21300;BME280;10809;49.476;11.016;2023-12-22T13:14:44;96679.34;;;5.35;73.47
21300;BME280;10809;49.476;11.016;2023-12-22T13:17:21;96667.72;;;5.39;73.45
21300;BME280;10809;49.476;11.016;2023-12-22T13:19:51;96676.28;;;5.42;73.38
21300;BME280;10809;49.476;11.016;2023-12-22T13:22:22;96672.50;;;5.46;73.66
21300;BME280;10809;49.476;11.016;2023-12-22T13:24:56;96673.28;;;5.48;73.46
21300;BME280;10809;49.476;11.016;2023-12-22T13:27:48;96669.59;;;5.51;73.45
21300;BME280;10809;49.476;11.016;2023-12-22T13:33:05;96645.69;;;5.55;73.63
21300;BME280;10809;49.476;11.016;2023-12-22T13:35:35;96621.06;;;5.58;73.25